Time;durP1;ratioP1;P1;durP2;ratioP2;P2;SDS_P1;SDS_P2;PMS_P1;PMS_P2;Temp;Humidity;BMP_temperature;BMP_pressure;BME280_temperature;BME280_humidity;BME280_pressure;Samples;Min_cycle;Max_cycle;Signal;HPM_P1;HPM_P2
2023/02/08 00:01:11;;;;;;;1999.90;999.90;;;2.90;99.90;;;;;;5112516;28;20399;-71
2023/02/08 00:03:37;;;;;;;1999.90;999.90;;;2.80;99.90;;;;;;5112503;28;20138;-72
2023/02/08 00:06:04;;;;;;;1999.90;999.90;;;2.90;99.90;;;;;;5112504;28;20451;-71
2023/02/08 00:08:30;;;;;;;1999.90;999.90;;;3.00;99.90;;;;;;5112356;28;20031;-81
2023/02/08 00:10:56;;;;;;;1999.90;999.90;;;2.90;99.90;;;;;;5112475;28;20096;-80
2023/02/08 00:13:21;;;;;;;1999.90;999.90;;;3.00;99.90;;;;;;5112802;28;20020;-71
2023/02/08 00:15:47;;;;;;;1999.90;999.90;;;2.90;99.90;;;;;;5112426;28;20031;-71
2023/02/08 00:18:13;;;;;;;1999.90;999.90;;;2.90;99.90;;;;;;5112325;28;20365;-71
2023/02/08 00:20:40;;;;;;;1999.90;999.90;;;2.80;99.90;;;;;;5110947;28;20035;-80
2023/02/08 00:23:06;;;;;;;1999.90;999.90;;;2.80;99.90;;;;;;5071520;28;20446;-71
2023/02/08 00:25:32;;;;;;;1999.90;999.90;;;2.70;99.90;;;;;;5071918;28;20024;-72
2023/02/08 00:27:58;;;;;;;1999.90;999.90;;;2.60;99.90;;;;;;5071716;28;20028;-71
2023/02/08 00:30:23;;;;;;;1999.90;999.90;;;2.60;99.90;;;;;;5071599;28;20032;-71
2023/02/08 00:32:49;;;;;;;1999.90;999.90;;;2.50;99.90;;;;;;5071982;28;20055;-80
2023/02/08 00:35:15;;;;;;;1999.90;999.90;;;2.40;99.90;;;;;;5071931;28;20036;-71
2023/02/08 00:37:40;;;;;;;1999.90;999.90;;;2.30;99.90;;;;;;5081534;28;20051;-71
2023/02/08 00:40:06;;;;;;;1999.90;999.90;;;2.30;99.90;;;;;;5073548;28;20111;-71
2023/02/08 00:42:32;;;;;;;1999.90;999.90;;;2.20;99.90;;;;;;5091831;28;20024;-71
2023/02/08 00:44:58;;;;;;;1999.90;999.90;;;2.10;99.90;;;;;;5092764;28;20071;-71
2023/02/08 00:47:24;;;;;;;1999.90;999.90;;;2.00;99.90;;;;;;5112419;28;20019;-71
2023/02/08 00:49:49;;;;;;;1999.90;999.90;;;1.90;99.90;;;;;;5093898;28;20080;-81
2023/02/08 00:52:16;;;;;;;1999.90;999.90;;;1.90;99.90;;;;;;5111390;28;20070;-71
2023/02/08 00:54:41;;;;;;;1999.90;999.90;;;1.90;99.90;;;;;;5112082;28;20027;-72
2023/02/08 00:57:07;;;;;;;1999.90;999.90;;;1.90;99.90;;;;;;5112158;28;20039;-71
2023/02/08 00:59:33;;;;;;;1999.90;999.90;;;1.90;99.90;;;;;;5115851;28;20043;-78
2023/02/08 01:01:59;;;;;;;1999.90;999.90;;;1.90;99.90;;;;;;5115613;28;20031;-80
2023/02/08 01:04:25;;;;;;;1999.90;999.90;;;1.80;99.90;;;;;;5097298;28;20020;-71
2023/02/08 01:06:50;;;;;;;1999.90;999.90;;;1.80;99.90;;;;;;5115782;28;20646;-72
2023/02/08 01:09:16;;;;;;;1999.90;999.90;;;1.80;99.90;;;;;;5115712;28;20024;-71
2023/02/08 01:11:42;;;;;;;1999.90;999.90;;;1.80;99.90;;;;;;5115749;28;20020;-80
2023/02/08 01:14:07;;;;;;;1999.90;999.90;;;1.70;99.90;;;;;;5115617;28;20027;-80
2023/02/08 01:16:33;;;;;;;1999.90;999.90;;;1.70;99.90;;;;;;5114881;28;20023;-72
2023/02/08 01:19:00;;;;;;;1999.90;999.90;;;1.60;99.90;;;;;;5115440;28;20020;-71
2023/02/08 01:21:29;;;;;;;1999.90;999.90;;;1.60;99.90;;;;;;5100531;28;20013;-71
2023/02/08 01:23:55;;;;;;;1999.90;999.90;;;1.60;99.90;;;;;;5074529;28;20362;-71
2023/02/08 01:26:22;;;;;;;1999.90;999.90;;;1.70;99.90;;;;;;5074612;28;20032;-80
2023/02/08 01:28:48;;;;;;;1999.90;999.90;;;1.60;99.90;;;;;;5074680;28;20020;-79
2023/02/08 01:31:17;;;;;;;1999.90;999.90;;;1.50;99.90;;;;;;5074920;28;20025;-71
2023/02/08 01:33:44;;;;;;;1999.90;999.90;;;1.50;99.90;;;;;;5074741;28;20031;-71
2023/02/08 01:36:10;;;;;;;1999.90;999.90;;;1.50;99.90;;;;;;5074413;28;20407;-71
2023/02/08 01:38:37;;;;;;;1999.90;999.90;;;1.60;99.90;;;;;;5092214;28;20028;-80
2023/02/08 01:41:04;;;;;;;1999.90;999.90;;;1.70;99.90;;;;;;5094887;28;20492;-71
2023/02/08 01:44:01;;;;;;;1999.90;999.90;;;1.70;99.90;;;;;;5094682;28;20032;-71
2023/02/08 01:46:27;;;;;;;1999.90;999.90;;;1.80;99.90;;;;;;5108160;28;20512;-71
2023/02/08 01:48:55;;;;;;;1999.90;999.90;;;1.80;99.90;;;;;;5114982;28;20376;-71
2023/02/08 01:51:25;;;;;;;1999.90;999.90;;;1.90;99.90;;;;;;5114882;28;20536;-77
2023/02/08 01:53:52;;;;;;;1999.90;999.90;;;1.80;99.90;;;;;;5114396;28;20028;-71
2023/02/08 01:56:32;;;;;;;1999.90;999.90;;;1.90;99.90;;;;;;5114627;28;20073;-71
2023/02/08 01:59:01;;;;;;;1999.90;999.90;;;2.00;99.90;;;;;;5114834;28;20551;-71
2023/02/08 02:01:29;;;;;;;1999.90;999.90;;;2.00;99.90;;;;;;5087110;28;20448;-71
2023/02/08 02:03:55;;;;;;;1999.90;999.90;;;2.10;99.90;;;;;;5114445;28;20031;-80
2023/02/08 02:06:25;;;;;;;1999.90;999.90;;;2.10;99.90;;;;;;5114825;28;20069;-81
2023/02/08 02:09:29;;;;;;;1999.90;999.90;;;2.30;99.90;;;;;;5114202;28;20023;-71
2023/02/08 02:11:56;;;;;;;1999.90;999.90;;;2.30;99.90;;;;;;5114459;28;20026;-71
2023/02/08 02:14:22;;;;;;;1999.90;999.90;;;2.20;99.90;;;;;;5111850;28;20028;-71
2023/02/08 02:16:48;;;;;;;1999.90;999.90;;;2.30;99.90;;;;;;5093964;28;20055;-80
2023/02/08 02:19:46;;;;;;;1999.90;999.90;;;2.30;99.90;;;;;;5094229;28;20103;-71
2023/02/08 02:22:26;;;;;;;1999.90;999.90;;;2.30;99.90;;;;;;5045507;28;20035;-71
2023/02/08 02:25:05;;;;;;;1999.90;999.90;;;2.30;99.90;;;;;;5073597;28;20033;-71
2023/02/08 02:27:43;;;;;;;1999.90;999.90;;;2.30;99.90;;;;;;5055890;28;20078;-71
2023/02/08 02:30:31;;;;;;;1999.90;999.90;;;2.20;99.90;;;;;;5073346;28;20035;-80
2023/02/08 02:33:02;;;;;;;1999.90;999.90;;;2.20;99.90;;;;;;5073442;28;20082;-71
2023/02/08 02:35:59;;;;;;;1999.90;999.90;;;2.10;99.90;;;;;;5055708;28;20254;-71
2023/02/08 02:38:39;;;;;;;1999.90;999.90;;;2.10;99.90;;;;;;5066319;28;20438;-71
2023/02/08 02:44:49;;;;;;;1999.90;999.90;;;1.80;99.90;;;;;;5093664;28;20042;-80
2023/02/08 02:47:31;;;;;;;1999.90;999.90;;;1.70;99.90;;;;;;5079534;28;20130;-80
2023/02/08 02:50:15;;;;;;;1999.90;999.90;;;1.60;99.90;;;;;;5113602;28;20032;-71
2023/02/08 02:53:06;;;;;;;1999.90;999.90;;;1.50;99.90;;;;;;5113124;28;20027;-71
2023/02/08 02:55:37;;;;;;;1999.90;999.90;;;1.40;99.90;;;;;;5113806;28;20035;-71
2023/02/08 02:58:05;;;;;;;1999.90;999.90;;;1.30;99.90;;;;;;5113531;28;20081;-80
2023/02/08 03:00:32;;;;;;;1999.90;999.90;;;1.20;99.90;;;;;;5095083;28;20092;-71
2023/02/08 03:02:58;;;;;;;1999.90;999.90;;;1.20;99.90;;;;;;5113359;28;20023;-71
2023/02/08 03:05:24;;;;;;;1999.90;999.90;;;1.20;99.90;;;;;;5113699;28;20077;-71
2023/02/08 03:08:11;;;;;;;1999.90;999.90;;;1.10;99.90;;;;;;5113295;28;20024;-71
2023/02/08 03:11:24;;;;;;;1999.90;999.90;;;1.10;99.90;;;;;;5113292;28;20028;-80
2023/02/08 03:14:11;;;;;;;1999.90;999.90;;;1.10;99.90;;;;;;5010852;28;20525;-71
2023/02/08 03:17:01;;;;;;;1999.90;999.90;;;1.00;99.90;;;;;;5010766;28;20072;-71
2023/02/08 03:20:05;;;;;;;1999.90;999.90;;;0.90;99.90;;;;;;4993414;28;20037;-71
2023/02/08 03:22:39;;;;;;;1999.90;999.90;;;0.80;99.90;;;;;;4990771;28;20493;-81
2023/02/08 03:25:19;;;;;;;1999.90;999.90;;;0.80;99.90;;;;;;4991334;28;20046;-81
2023/02/08 03:28:00;;;;;;;1999.90;999.90;;;0.80;99.90;;;;;;4991028;28;20039;-71
2023/02/08 03:30:35;;;;;;;1999.90;999.90;;;0.70;99.90;;;;;;4990856;28;20030;-71
2023/02/08 03:33:16;;;;;;;1999.90;999.90;;;0.70;99.90;;;;;;4990973;28;20454;-71
2023/02/08 03:35:49;;;;;;;1999.90;999.90;;;0.70;99.90;;;;;;4990914;28;20141;-80
2023/02/08 03:38:34;;;;;;;1999.90;999.90;;;0.70;99.90;;;;;;4990402;28;20038;-80
2023/02/08 03:41:03;;;;;;;1999.90;999.90;;;0.70;99.90;;;;;;4990794;28;20157;-71
2023/02/08 03:43:58;;;;;;;1999.90;999.90;;;0.70;99.90;;;;;;4991033;28;20041;-71
2023/02/08 03:46:29;;;;;;;1999.90;999.90;;;0.60;99.90;;;;;;4986439;28;20169;-71
2023/02/08 03:49:01;;;;;;;1999.90;999.90;;;0.60;99.90;;;;;;5068290;28;20111;-80
2023/02/08 03:51:29;;;;;;;1999.90;999.90;;;0.50;99.90;;;;;;5072390;28;20400;-80
2023/02/08 03:53:57;;;;;;;1999.90;999.90;;;0.50;99.90;;;;;;5071581;28;20016;-71
2023/02/08 03:56:43;;;;;;;1999.90;999.90;;;0.50;99.90;;;;;;5071977;28;20028;-71
2023/02/08 03:59:38;;;;;;;1999.90;999.90;;;0.40;99.90;;;;;;5072255;28;20040;-71
2023/02/08 04:02:07;;;;;;;1999.90;999.90;;;0.40;99.90;;;;;;5069338;28;20041;-80
2023/02/08 04:04:39;;;;;;;1999.90;999.90;;;0.40;99.90;;;;;;5071848;28;20013;-79
2023/02/08 04:07:05;;;;;;;1999.90;999.90;;;0.40;99.90;;;;;;5072177;28;20477;-71
2023/02/08 04:09:31;;;;;;;1999.90;999.90;;;0.40;99.90;;;;;;5070709;28;20021;-71
2023/02/08 04:11:56;;;;;;;1999.90;999.90;;;0.40;99.90;;;;;;5071748;28;20035;-71
2023/02/08 04:14:22;;;;;;;1999.90;999.90;;;0.40;99.90;;;;;;5071761;28;20021;-80
2023/02/08 04:16:47;;;;;;;1999.90;999.90;;;0.40;99.90;;;;;;5071206;28;20029;-71
2023/02/08 04:19:13;;;;;;;1999.90;999.90;;;0.40;99.90;;;;;;5072149;28;20496;-71
2023/02/08 04:21:39;;;;;;;1999.90;999.90;;;0.40;99.90;;;;;;5066069;28;20036;-71
2023/02/08 04:24:05;;;;;;;1999.90;999.90;;;0.50;99.90;;;;;;5053482;28;20493;-71
2023/02/08 04:26:30;;;;;;;1999.90;999.90;;;0.50;99.90;;;;;;5071710;28;20020;-80
2023/02/08 04:28:56;;;;;;;1999.90;999.90;;;0.50;99.90;;;;;;5071665;28;20481;-80
2023/02/08 04:31:21;;;;;;;1999.90;999.90;;;0.50;99.90;;;;;;5071924;28;20443;-80
2023/02/08 04:33:47;;;;;;;1999.90;999.90;;;0.50;99.90;;;;;;5074300;28;20020;-71
2023/02/08 04:36:13;;;;;;;1999.90;999.90;;;0.50;99.90;;;;;;5075513;28;20477;-71
2023/02/08 04:38:38;;;;;;;1999.90;999.90;;;0.50;99.90;;;;;;5074914;28;20074;-71
2023/02/08 04:41:04;;;;;;;1999.90;999.90;;;0.40;99.90;;;;;;5075578;28;20071;-71
2023/02/08 04:43:30;;;;;;;1999.90;999.90;;;0.40;99.90;;;;;;5075799;28;20062;-80
2023/02/08 04:45:55;;;;;;;1999.90;999.90;;;0.40;99.90;;;;;;5075528;28;20044;-71
2023/02/08 04:48:21;;;;;;;1999.90;999.90;;;0.40;99.90;;;;;;5075284;28;20543;-71
2023/02/08 04:50:46;;;;;;;1999.90;999.90;;;0.30;99.90;;;;;;5074889;28;20029;-71
2023/02/08 04:53:12;;;;;;;1999.90;999.90;;;0.30;99.90;;;;;;5074845;28;20033;-80
2023/02/08 04:55:38;;;;;;;1999.90;999.90;;;0.40;99.90;;;;;;5075424;28;20511;-71
2023/02/08 04:58:03;;;;;;;1999.90;999.90;;;0.30;99.90;;;;;;5075149;28;20024;-71
2023/02/08 05:00:29;;;;;;;1999.90;999.90;;;0.40;99.90;;;;;;5075108;28;20064;-71
2023/02/08 05:02:56;;;;;;;1999.90;999.90;;;0.30;99.90;;;;;;5074990;28;20064;-71
2023/02/08 05:05:24;;;;;;;1999.90;999.90;;;0.30;99.90;;;;;;5057235;28;20523;-71
2023/02/08 05:07:50;;;;;;;1999.90;999.90;;;0.40;99.90;;;;;;5074853;28;20020;-80
2023/02/08 05:10:16;;;;;;;1999.90;999.90;;;0.30;99.90;;;;;;5074924;28;20553;-80
2023/02/08 05:12:42;;;;;;;1999.90;999.90;;;0.40;99.90;;;;;;5074868;28;20489;-71
2023/02/08 05:15:08;;;;;;;1999.90;999.90;;;0.40;99.90;;;;;;5075090;28;20040;-71
2023/02/08 05:17:34;;;;;;;1999.90;999.90;;;0.40;99.90;;;;;;5075171;28;20025;-71
2023/02/08 05:20:00;;;;;;;1999.90;999.90;;;0.30;99.90;;;;;;5074731;28;20036;-80
2023/02/08 05:22:25;;;;;;;1999.90;999.90;;;0.30;99.90;;;;;;5059286;28;20035;-80
2023/02/08 05:24:51;;;;;;;1999.90;999.90;;;0.30;99.90;;;;;;5054681;28;20036;-71
2023/02/08 05:27:17;;;;;;;1999.90;999.90;;;0.30;99.90;;;;;;5054747;28;20078;-71
2023/02/08 05:29:42;;;;;;;1999.90;999.90;;;0.30;99.90;;;;;;5054840;28;20032;-71
2023/02/08 05:32:08;;;;;;;1999.90;999.90;;;0.20;99.90;;;;;;5054552;28;20100;-71
2023/02/08 05:34:33;;;;;;;1999.90;999.90;;;0.20;99.90;;;;;;5067009;28;20542;-80
2023/02/08 05:36:59;;;;;;;1999.90;999.90;;;0.20;99.90;;;;;;5073871;28;20025;-71
2023/02/08 05:39:25;;;;;;;1999.90;999.90;;;0.20;99.90;;;;;;5074402;28;20056;-71
2023/02/08 05:41:50;;;;;;;1999.90;999.90;;;0.10;99.90;;;;;;5074355;28;20029;-71
2023/02/08 05:44:16;;;;;;;1999.90;999.90;;;0.10;99.90;;;;;;5073139;28;20024;-72
2023/02/08 05:46:41;;;;;;;1999.90;999.90;;;0.10;99.90;;;;;;5106079;28;20043;-71
2023/02/08 05:49:07;;;;;;;1999.90;999.90;;;0.10;99.90;;;;;;5114589;28;20031;-71
2023/02/08 05:51:33;;;;;;;1999.90;999.90;;;0.10;99.90;;;;;;5114946;28;20015;-71
2023/02/08 05:53:58;;;;;;;1999.90;999.90;;;0.10;99.90;;;;;;5114011;28;20059;-80
2023/02/08 05:56:24;;;;;;;1999.90;999.90;;;0.00;99.90;;;;;;5114800;28;20072;-71
2023/02/08 05:58:49;;;;;;;1999.90;999.90;;;0.00;99.90;;;;;;5114607;28;20460;-79
2023/02/08 06:01:15;;;;;;;1999.90;999.90;;;0.00;99.90;;;;;;5114651;28;20084;-80
2023/02/08 06:03:41;;;;;;;1999.90;999.90;;;0.00;99.90;;;;;;5114711;28;20369;-80
2023/02/08 06:06:09;;;;;;;1999.90;999.90;;;0.00;99.90;;;;;;5114480;28;20055;-71
2023/02/08 06:08:35;;;;;;;1999.90;999.90;;;0.00;99.90;;;;;;5114459;28;20106;-71
2023/02/08 06:11:01;;;;;;;1999.90;999.90;;;0.00;99.90;;;;;;5114312;28;20098;-70
2023/02/08 06:13:28;;;;;;;1999.90;999.90;;;-0.10;99.90;;;;;;5114623;28;20544;-71
2023/02/08 06:15:54;;;;;;;1999.90;999.90;;;0.00;99.90;;;;;;5114281;28;20507;-80
2023/02/08 06:18:19;;;;;;;1999.90;999.90;;;0.00;99.90;;;;;;5114192;28;20049;-80
2023/02/08 06:20:45;;;;;;;1999.90;999.90;;;0.00;99.90;;;;;;5111336;28;20099;-80
2023/02/08 06:23:11;;;;;;;1999.90;999.90;;;0.10;99.90;;;;;;5073474;28;20027;-80
2023/02/08 06:25:36;;;;;;;1999.90;999.90;;;0.10;99.90;;;;;;5073657;28;20031;-70
2023/02/08 06:28:02;;;;;;;1999.90;999.90;;;0.00;99.90;;;;;;5055298;28;20021;-71
2023/02/08 06:30:28;;;;;;;1999.90;999.90;;;0.10;99.90;;;;;;5073304;28;20079;-80
2023/02/08 06:32:53;;;;;;;1999.90;999.90;;;0.10;99.90;;;;;;5073310;28;20062;-71
2023/02/08 06:35:19;;;;;;;1999.90;999.90;;;0.10;99.90;;;;;;5070913;28;20024;-71
2023/02/08 06:37:45;;;;;;;1999.90;999.90;;;0.10;99.90;;;;;;5083304;28;20571;-71
2023/02/08 06:40:10;;;;;;;1999.90;999.90;;;0.00;99.90;;;;;;5093015;28;20103;-71
2023/02/08 06:42:36;;;;;;;1999.90;999.90;;;-0.10;99.90;;;;;;5093074;28;20042;-80
2023/02/08 06:45:02;;;;;;;1999.90;999.90;;;-0.10;99.90;;;;;;5091080;28;20044;-80
2023/02/08 06:47:29;;;;;;;1999.90;999.90;;;-0.10;99.90;;;;;;5091493;28;20077;-71
2023/02/08 06:49:54;;;;;;;1999.90;999.90;;;-0.20;99.90;;;;;;5092933;28;20103;-71
2023/02/08 06:52:20;;;;;;;1999.90;999.90;;;-0.20;99.90;;;;;;5092661;28;20107;-71
2023/02/08 06:54:46;;;;;;;1999.90;999.90;;;-0.20;99.90;;;;;;5088913;28;20028;-71
2023/02/08 06:57:12;;;;;;;1999.90;999.90;;;-0.20;99.90;;;;;;5086501;28;20050;-80
2023/02/08 06:59:38;;;;;;;1999.90;999.90;;;-0.20;99.90;;;;;;5083239;28;20032;-71
2023/02/08 07:02:04;;;;;;;1999.90;999.90;;;-0.20;99.90;;;;;;5104877;28;20526;-71
2023/02/08 07:04:30;;;;;;;1999.90;999.90;;;-0.20;99.90;;;;;;5106397;28;20020;-79
2023/02/08 07:06:56;;;;;;;1999.90;999.90;;;-0.20;99.90;;;;;;5091521;28;20028;-70
2023/02/08 07:09:21;;;;;;;1999.90;999.90;;;-0.10;99.90;;;;;;5092580;28;20077;-80
2023/02/08 07:11:47;;;;;;;1999.90;999.90;;;-0.10;99.90;;;;;;5087470;28;20032;-72
2023/02/08 07:14:14;;;;;;;1999.90;999.90;;;-0.10;99.90;;;;;;5084141;28;20078;-70
2023/02/08 07:16:40;;;;;;;1999.90;999.90;;;-0.10;99.90;;;;;;5088513;28;20680;-70
2023/02/08 07:19:06;;;;;;;1999.90;999.90;;;0.00;99.90;;;;;;5072561;28;20032;-69
2023/02/08 07:21:31;;;;;;;1999.90;999.90;;;0.00;99.90;;;;;;5082289;28;20028;-77
2023/02/08 07:23:57;;;;;;;1999.90;999.90;;;0.00;99.90;;;;;;5089580;28;20035;-79
2023/02/08 07:26:22;;;;;;;1999.90;999.90;;;0.00;99.90;;;;;;5086234;28;20028;-79
2023/02/08 07:28:48;;;;;;;1999.90;999.90;;;0.00;99.90;;;;;;5077966;28;20100;-72
2023/02/08 07:31:16;;;;;;;1999.90;999.90;;;0.00;99.90;;;;;;5082859;28;20040;-72
2023/02/08 07:33:42;;;;;;;1999.90;999.90;;;0.00;99.90;;;;;;5090275;28;20038;-71
2023/02/08 07:36:09;;;;;;;1999.90;999.90;;;0.00;99.90;;;;;;5089910;28;20039;-77
2023/02/08 07:38:36;;;;;;;1999.90;999.90;;;0.00;99.90;;;;;;5085976;28;20042;-77
2023/02/08 07:41:05;;;;;;;1999.90;999.90;;;0.00;99.90;;;;;;5089775;28;20046;-71
2023/02/08 07:43:33;;;;;;;1999.90;999.90;;;0.10;99.90;;;;;;5088301;28;20481;-71
2023/02/08 07:46:07;;;;;;;1999.90;999.90;;;0.10;99.90;;;;;;5085669;28;20089;-71
2023/02/08 07:48:33;;;;;;;1999.90;999.90;;;0.20;99.90;;;;;;5083653;28;20111;-71
2023/02/08 07:50:58;;;;;;;1999.90;999.90;;;0.20;99.90;;;;;;5094975;28;20178;-78
2023/02/08 07:53:24;;;;;;;1999.90;999.90;;;0.30;99.90;;;;;;5107063;28;20607;-77
2023/02/08 07:55:50;;;;;;;1999.90;999.90;;;0.30;99.90;;;;;;5101534;28;20065;-71
2023/02/08 07:58:15;;;;;;;1999.90;999.90;;;0.30;99.90;;;;;;5089221;28;20028;-72
2023/02/08 08:00:41;;;;;;;1999.90;999.90;;;0.30;99.90;;;;;;5088741;28;20020;-71
2023/02/08 08:03:07;;;;;;;1999.90;999.90;;;0.40;99.90;;;;;;5089435;28;20044;-77
2023/02/08 08:05:32;;;;;;;1999.90;999.90;;;0.50;99.90;;;;;;5089673;28;20058;-71
2023/02/08 08:07:58;;;;;;;1999.90;999.90;;;0.70;99.90;;;;;;5084424;28;20036;-71
2023/02/08 08:10:23;;;;;;;1999.90;999.90;;;0.80;99.90;;;;;;5081400;28;20040;-72
2023/02/08 08:12:49;;;;;;;1999.90;999.90;;;0.90;99.90;;;;;;5087690;28;20057;-77
2023/02/08 08:15:15;;;;;;;1999.90;999.90;;;1.00;99.90;;;;;;5084747;28;20020;-75
2023/02/08 08:17:41;;;;;;;1999.90;999.90;;;1.20;99.90;;;;;;5077438;28;20024;-71
2023/02/08 08:20:10;;;;;;;1999.90;999.90;;;1.20;99.90;;;;;;5081389;28;20385;-72
2023/02/08 08:22:36;;;;;;;1999.90;999.90;;;1.30;99.90;;;;;;5079846;28;20109;-72
2023/02/08 08:25:02;;;;;;;1999.90;999.90;;;1.50;99.90;;;;;;5082730;28;20473;-71
2023/02/08 08:27:27;;;;;;;1999.90;999.90;;;1.60;99.90;;;;;;5093559;28;20024;-73
2023/02/08 08:29:53;;;;;;;1999.90;999.90;;;1.60;99.90;;;;;;5083971;28;20028;-77
2023/02/08 08:32:19;;;;;;;1999.90;999.90;;;1.80;99.90;;;;;;5079406;28;20476;-77
2023/02/08 08:34:44;;;;;;;1999.90;999.90;;;2.00;99.90;;;;;;5087634;28;20080;-72
2023/02/08 08:37:10;;;;;;;1999.90;999.90;;;2.30;99.90;;;;;;5081968;28;20362;-73
2023/02/08 08:39:36;;;;;;;1999.90;999.90;;;3.40;99.90;;;;;;5077737;28;20039;-77
2023/02/08 08:42:02;;;;;;;1999.90;999.90;;;5.00;99.90;;;;;;5070767;28;20024;-74
2023/02/08 08:44:29;;;;;;;1999.90;999.90;;;6.00;99.90;;;;;;5086917;28;20177;-78
2023/02/08 08:46:56;;;;;;;1999.90;999.90;;;5.40;99.90;;;;;;5101338;28;20074;-72
2023/02/08 08:49:22;;;;;;;1999.90;999.90;;;4.40;99.90;;;;;;5093732;28;20028;-72
2023/02/08 08:51:48;;;;;;;1999.90;999.90;;;3.90;99.90;;;;;;5095727;28;20081;-78
2023/02/08 08:54:14;;;;;;;1999.90;999.90;;;3.50;99.90;;;;;;5092516;28;20032;-72
2023/02/08 08:56:39;;;;;;;1999.90;999.90;;;3.30;99.90;;;;;;5078951;28;20377;-72
2023/02/08 08:59:05;;;;;;;1999.90;999.90;;;3.30;99.90;;;;;;5087504;28;20038;-72
2023/02/08 09:01:31;;;;;;;1999.90;999.90;;;3.40;99.90;;;;;;5081574;28;20099;-72
2023/02/08 09:03:56;;;;;;;1999.90;999.90;;;4.10;99.90;;;;;;5088472;28;20408;-72
2023/02/08 09:06:22;;;;;;;1999.90;999.90;;;4.40;99.90;;;;;;5099525;28;20039;-75
2023/02/08 09:08:47;;;;;;;1999.90;999.90;;;4.30;99.90;;;;;;5086509;28;20040;-72
2023/02/08 09:11:14;;;;;;;1999.90;999.90;;;4.30;99.90;;;;;;5092439;28;20542;-78
2023/02/08 09:13:41;;;;;;;1999.90;999.90;;;4.30;99.90;;;;;;5104292;28;20491;-72
2023/02/08 09:16:13;;;;;;;1999.90;999.90;;;4.40;99.90;;;;;;5075525;28;20020;-72
2023/02/08 09:18:39;;;;;;;1999.90;999.90;;;4.40;99.90;;;;;;5082362;28;20127;-72
2023/02/08 09:21:10;;;;;;;1999.90;999.90;;;4.50;99.90;;;;;;5082120;28;20081;-72
2023/02/08 09:23:36;;;;;;;1999.90;999.90;;;4.50;99.90;;;;;;5077485;28;20039;-74
2023/02/08 09:26:03;;;;;;;1999.90;999.90;;;4.50;99.90;;;;;;5076589;28;20530;-72
2023/02/08 09:28:29;;;;;;;1999.90;999.90;;;4.50;99.90;;;;;;5080442;28;20028;-72
2023/02/08 09:30:55;;;;;;;1999.90;999.90;;;4.50;99.90;;;;;;5087826;28;20468;-72
2023/02/08 09:33:20;;;;;;;1999.90;999.90;;;4.60;99.90;;;;;;5087322;28;20102;-77
2023/02/08 09:35:46;;;;;;;1999.90;999.90;;;4.70;99.90;;;;;;5093110;28;20078;-72
2023/02/08 09:38:12;;;;;;;1999.90;999.90;;;4.80;99.90;;;;;;5098008;28;20066;-72
2023/02/08 09:40:48;;;;;;;1999.90;999.90;;;4.90;99.90;;;;;;5095987;28;20043;-72
2023/02/08 09:43:31;;;;;;;1999.90;999.90;;;5.00;99.90;;;;;;5082965;28;20026;-72
2023/02/08 09:46:32;;;;;;;1999.90;999.90;;;5.10;99.90;;;;;;5063304;28;20079;-78
2023/02/08 09:49:01;;;;;;;1999.90;999.90;;;5.40;99.90;;;;;;5034698;28;20039;-78
2023/02/08 09:51:57;;;;;;;1999.90;999.90;;;5.50;99.90;;;;;;5074885;28;20043;-75
2023/02/08 09:54:26;;;;;;;1999.90;999.90;;;5.70;99.90;;;;;;5075548;28;20067;-72
2023/02/08 09:56:53;;;;;;;1999.90;999.90;;;5.80;99.90;;;;;;5098664;28;20537;-72
2023/02/08 09:59:28;;;;;;;1999.90;999.90;;;6.00;99.90;;;;;;5089373;28;20035;-72
2023/02/08 10:02:17;;;;;;;1999.90;999.90;;;5.80;99.90;;;;;;5090132;28;20081;-72
2023/02/08 10:04:58;;;;;;;1999.90;999.90;;;5.90;99.90;;;;;;5076429;28;20500;-72
2023/02/08 10:07:28;;;;;;;1999.90;999.90;;;5.90;99.90;;;;;;5073328;28;20074;-77
2023/02/08 10:09:57;;;;;;;1999.90;999.90;;;6.00;99.90;;;;;;5078212;28;20476;-77
2023/02/08 10:12:49;;;;;;;1999.90;999.90;;;6.10;99.90;;;;;;5080978;28;20025;-72
2023/02/08 10:15:46;;;;;;;1999.90;999.90;;;6.20;99.90;;;;;;5085049;28;20115;-76
2023/02/08 10:18:43;;;;;;;1999.90;999.90;;;6.30;99.90;;;;;;5079773;28;20028;-72
2023/02/08 10:21:28;;;;;;;1999.90;999.90;;;6.50;99.90;;;;;;5080929;28;20032;-72
2023/02/08 10:24:09;;;;;;;1999.90;999.90;;;6.60;99.90;;;;;;5071531;28;20039;-77
2023/02/08 10:26:44;;;;;;;1999.90;999.90;;;6.80;99.90;;;;;;5069224;28;20093;-72
2023/02/08 10:29:47;;;;;;;1999.90;999.90;;;6.80;99.90;;;;;;5087729;28;20028;-76
2023/02/08 10:32:28;;;;;;;1999.90;999.90;;;6.90;99.90;;;;;;5076228;28;20036;-72
2023/02/08 10:35:02;;;;;;;1999.90;999.90;;;7.00;99.90;;;;;;5090044;28;20028;-76
2023/02/08 10:37:33;;;;;;;1999.90;999.90;;;7.10;99.90;;;;;;5090549;28;20012;-72
2023/02/08 10:40:13;;;;;;;1999.90;999.90;;;7.20;99.90;;;;;;5071401;28;20036;-72
2023/02/08 10:42:41;;;;;;;1999.90;999.90;;;7.30;99.90;;;;;;5075672;28;20037;-77
2023/02/08 10:45:25;;;;;;;1999.90;999.90;;;7.50;99.90;;;;;;5087360;28;20056;-72
2023/02/08 10:47:59;;;;;;;1999.90;999.90;;;7.60;99.90;;;;;;5103550;28;20030;-72
2023/02/08 10:50:36;;;;;;;1999.90;999.90;;;7.60;99.90;;;;;;5095860;28;20021;-76
2023/02/08 10:53:03;;;;;;;1999.90;999.90;;;7.80;99.90;;;;;;5070633;28;20482;-77
2023/02/08 10:55:31;;;;;;;1999.90;999.90;;;7.80;99.90;;;;;;5080556;28;20054;-72
2023/02/08 10:57:59;;;;;;;1999.90;999.90;;;7.90;99.90;;;;;;5079169;28;20126;-72
2023/02/08 11:00:31;;;;;;;1999.90;999.90;;;7.90;99.90;;;;;;5073315;28;20031;-72
2023/02/08 11:03:00;;;;;;;1999.90;999.90;;;8.10;99.90;;;;;;5077513;28;20574;-77
2023/02/08 11:05:35;;;;;;;1999.90;999.90;;;8.10;99.90;;;;;;5067526;28;20020;-74
2023/02/08 11:08:06;;;;;;;1999.90;999.90;;;8.20;99.90;;;;;;5069690;28;20032;-77
2023/02/08 11:10:33;;;;;;;1999.90;999.90;;;8.30;99.90;;;;;;5078648;28;20024;-72
2023/02/08 11:13:13;;;;;;;1999.90;999.90;;;8.30;99.90;;;;;;5067940;28;20066;-72
2023/02/08 11:15:56;;;;;;;1999.90;999.90;;;8.40;99.90;;;;;;5093664;28;20106;-77
2023/02/08 11:18:30;;;;;;;1999.90;999.90;;;8.60;99.90;;;;;;5094861;28;20019;-77
2023/02/08 11:20:59;;;;;;;1999.90;999.90;;;8.80;99.90;;;;;;5091134;28;20032;-77
2023/02/08 11:23:31;;;;;;;1999.90;999.90;;;8.90;99.90;;;;;;5099110;28;20476;-72
2023/02/08 11:26:16;;;;;;;1999.90;999.90;;;9.00;99.90;;;;;;5091078;28;20031;-72
2023/02/08 11:28:43;;;;;;;1999.90;999.90;;;9.00;99.90;;;;;;5070708;28;20267;-74
2023/02/08 11:31:20;;;;;;;1999.90;999.90;;;9.10;99.90;;;;;;5082027;28;20043;-77
2023/02/08 11:33:59;;;;;;;1999.90;999.90;;;9.10;99.90;;;;;;5089007;28;20031;-77
2023/02/08 11:36:25;;;;;;;1999.90;999.90;;;9.20;99.90;;;;;;5087246;28;20115;-72
2023/02/08 11:38:51;;;;;;;1999.90;999.90;;;9.30;99.90;;;;;;5088287;28;20020;-77
2023/02/08 11:41:19;;;;;;;1999.90;999.90;;;9.40;99.90;;;;;;5070572;28;20088;-72
2023/02/08 11:43:55;;;;;;;1999.90;999.90;;;9.60;99.90;;;;;;5064908;28;20016;-77
2023/02/08 11:46:23;;;;;;;1999.90;999.90;;;9.80;99.90;;;;;;5081244;28;20083;-77
2023/02/08 11:48:51;;;;;;;1999.90;999.90;;;9.70;99.90;;;;;;5082353;28;20036;-72
2023/02/08 11:51:36;;;;;;;1999.90;999.90;;;9.80;99.90;;;;;;5074740;28;20024;-72
2023/02/08 11:54:03;;;;;;;1999.90;999.90;;;9.90;99.90;;;;;;5087082;28;20497;-78
2023/02/08 11:56:32;;;;;;;1999.90;999.90;;;9.90;99.90;;;;;;5072881;28;20082;-72
2023/02/08 11:59:19;;;;;;;1999.90;999.90;;;10.10;99.90;;;;;;5077443;28;20036;-77
2023/02/08 12:01:45;;;;;;;1999.90;999.90;;;9.90;99.90;;;;;;5084761;28;20042;-73
2023/02/08 12:04:12;;;;;;;1999.90;999.90;;;10.00;99.90;;;;;;5080483;28;20036;-72
2023/02/08 12:07:00;;;;;;;1999.90;999.90;;;10.00;99.90;;;;;;5088374;28;20926;-77
2023/02/08 12:09:38;;;;;;;1999.90;999.90;;;10.30;99.90;;;;;;5082181;28;20094;-78
2023/02/08 12:12:16;;;;;;;1999.90;999.90;;;10.30;99.90;;;;;;5083278;28;20021;-77
2023/02/08 12:14:45;;;;;;;1999.90;999.90;;;10.30;99.90;;;;;;5083390;28;20031;-72
2023/02/08 12:17:30;;;;;;;1999.90;999.90;;;10.40;99.90;;;;;;5087273;28;20063;-78
2023/02/08 12:20:26;;;;;;;1999.90;999.90;;;10.60;99.90;;;;;;5084367;28;20401;-78
2023/02/08 12:23:29;;;;;;;1999.90;999.90;;;10.80;99.90;;;;;;5065109;28;20396;-74
2023/02/08 12:26:07;;;;;;;1999.90;999.90;;;10.60;99.90;;;;;;5075180;28;20489;-78
2023/02/08 12:29:05;;;;;;;1999.90;999.90;;;10.90;99.90;;;;;;5086431;28;20373;-72